Flight Track Log - Related Links

Times and Time Zones

All times are in EDT time to prevent confusion due to time zone crossing. See the N143RD flight status page for this flight to view local times or setup timezone preferences in your user account.

Time Position Orientation Groundspeed Altitude Reporting Facility
EDT Latitude Longitude Course Direction KTS MPH feet Rate Location/Type
Tue 07:10:00 PM 40.7000 -73.4500 24° Northeast 86 99 1,700  Level New York TRACON
Tue 07:11:00 PM 40.6833 -73.4833 237° Southwest 74 85 2,400 645 Climbing New York TRACON
Tue 07:12:01 PM 40.6833 -73.5000 270° West 79 91 3,000 600 Climbing New York TRACON
Tue 07:13:00 PM 40.7000 -73.5167 323° Northwest 80 92 3,600 633 Climbing New York TRACON
Tue 07:14:00 PM 40.8807 -73.3013 21° North  Level FlightAware Approximate
Tue 07:14:00 PM 40.7214 -73.4782 54° Northeast  Level FlightAware Approximate
Tue 07:15:00 PM 40.9137 -73.2818 24° Northeast  Level FlightAware Approximate
Tue 07:15:01 PM 40.7500 -73.5000 54° Northeast 88 101 4,900  Level New York TRACON
Tue 07:16:01 PM 40.7667 -73.4833 37° Northeast 94 108 5,500 500 Climbing New York TRACON
Tue 07:17:01 PM 40.8000 -73.4667 21° North 109 125 5,900 400 Climbing New York TRACON
Tue 07:18:01 PM 40.8167 -73.4500 37° Northeast 121 139 6,300 400 Climbing New York TRACON
Tue 07:19:01 PM 40.8500 -73.4167 37° Northeast 123 142 6,700 160 Climbing New York TRACON
Tue 07:21:00 PM 40.8788 -73.3299 21° North  Level Estimated
Tue 07:23:01 PM 40.9667 -73.2667 29° Northeast 155 178 7,100  Level New York TRACON
Tue 07:25:01 PM 41.0167 -73.1833 51° Northeast 154 177 7,000 -33 Descending New York TRACON
Tue 07:26:01 PM 41.0500 -73.1333 49° Northeast 154 177 7,000  Level New York TRACON
Tue 07:27:01 PM 41.0667 -73.1000 56° Northeast 150 173 7,000  Level New York TRACON
Tue 07:28:00 PM 40.9799 -73.0229 29° Northeast  Level Estimated
Tue 07:29:00 PM 41.0905 -73.0103 65° Northeast  Level Estimated
Tue 07:30:01 PM 41.1500 -72.9667 65° Northeast 154 177 7,000  Level New York TRACON
Tue 07:32:01 PM 41.2000 -72.8833 51° Northeast 152 175 7,000  Level New York TRACON
Tue 07:33:01 PM 41.2333 -72.8333 48° Northeast 146 168 7,000  Level New York TRACON
Tue 07:34:01 PM 41.2500 -72.8000 56° Northeast 148 170 7,000  Level New York TRACON
Tue 07:35:01 PM 41.2833 -72.7500 48° Northeast 147 169 7,000  Level New York TRACON
Tue 07:36:01 PM 41.3000 -72.7167 56° Northeast 150 173 7,000  Level New York TRACON
Tue 07:38:01 PM 41.3500 -72.6167 56° Northeast 151 174 7,000  Level New York TRACON
Tue 07:38:40 PM 41.3542 -72.5811 81° East 147 169 7,000  Level Boston Center
Tue 07:39:22 PM 41.3667 -72.5453 65° Northeast 150 173 7,000  Level Boston Center
Tue 07:40:23 PM 41.3667 -72.4872 90° East 152 175 7,000  Level Boston Center
Tue 07:41:23 PM 41.3625 -72.4319 96° East 164 189 7,000  Level Boston Center
Tue 07:42:24 PM 41.3583 -72.3736 95° East 156 180 7,000  Level Boston Center
Tue 07:43:25 PM 41.3686 -72.3183 76° East 147 169 7,000  Level Boston Center
Tue 07:44:25 PM 41.3769 -72.2686 77° East 148 170 7,000  Level Boston Center
Tue 07:45:26 PM 41.3853 -72.2133 79° East 151 174 7,000 -148 Level Boston Center
Tue 07:46:27 PM 41.3956 -72.1578 76° East 152 175 6,700 -425 Descending Boston Center
Tue 07:47:33 PM 41.4078 -72.0942 76° East 167 192 6,100 -520 Descending Boston Center
Tue 07:48:34 PM 41.4161 -72.0333 80° East 157 181 5,600 -541 Descending Boston Center
Tue 07:49:35 PM 41.4219 -71.9778 82° East 161 185 5,000 -545 Descending Boston Center
Tue 07:50:35 PM 41.4322 -71.9197 77° East 155 178 4,500 -446 Descending Boston Center
Tue 07:51:36 PM 41.4422 -71.8642 76° East 158 182 4,100 -393 Descending Boston Center
Tue 07:52:37 PM 41.4503 -71.8058 80° East 161 185 3,700 -397 Descending Boston Center
Tue 07:53:37 PM 41.4606 -71.7447 77° East 162 186 3,300 -397 Descending Boston Center
Tue 07:54:38 PM 41.4706 -71.6894 76° East 153 176 2,900 -198 Descending Boston Center
Tue 07:55:38 PM 41.4764 -71.6367 82° East 142 163 2,900 50 Level Boston Center
Tue 07:56:39 PM 41.4864 -71.5783 77° East 148 170 3,000 -94 Climbing Boston Center
Tue 07:57:46 PM 41.4942 -71.5200 80° East 158 182 2,700 -261 Descending Boston Center
Tue 07:58:34 PM 41.5022 -71.4700 78° East 159 183 2,500 -250 Descending Boston Center

Login

Don't have an account? Register now (free) for customized features, flight alerts, and more!